sensor_id;sensor_type;location;lat;lon;timestamp;pressure;altitude;pressure_sealevel;temperature;humidity
67803;BME280;54601;51.378;-1.342;2023-02-21T00:00:44;100825.96;;;18.32;33.53
67803;BME280;54601;51.378;-1.342;2023-02-21T00:03:09;100819.88;;;18.30;33.54
67803;BME280;54601;51.378;-1.342;2023-02-21T00:05:34;100821.21;;;18.29;33.60
67803;BME280;54601;51.378;-1.342;2023-02-21T00:08:00;100825.91;;;18.26;33.61
67803;BME280;54601;51.378;-1.342;2023-02-21T00:10:25;100822.52;;;18.72;33.73
67803;BME280;54601;51.378;-1.342;2023-02-21T00:12:50;100820.08;;;18.17;33.50
67803;BME280;54601;51.378;-1.342;2023-02-21T00:15:16;100815.73;;;18.48;33.63
67803;BME280;54601;51.378;-1.342;2023-02-21T00:17:41;100813.45;;;18.66;33.68
67803;BME280;54601;51.378;-1.342;2023-02-21T00:20:07;100813.21;;;18.46;33.45
67803;BME280;54601;51.378;-1.342;2023-02-21T00:22:32;100810.79;;;18.14;33.50
67803;BME280;54601;51.378;-1.342;2023-02-21T00:24:57;100813.13;;;18.44;33.40
67803;BME280;54601;51.378;-1.342;2023-02-21T00:27:23;100810.30;;;18.23;33.47
67803;BME280;54601;51.378;-1.342;2023-02-21T00:29:48;100812.16;;;18.39;33.38
67803;BME280;54601;51.378;-1.342;2023-02-21T00:32:13;100813.41;;;18.18;33.42
67803;BME280;54601;51.378;-1.342;2023-02-21T00:34:38;100812.52;;;18.08;33.48
67803;BME280;54601;51.378;-1.342;2023-02-21T00:37:04;100811.60;;;18.37;33.65
67803;BME280;54601;51.378;-1.342;2023-02-21T00:39:29;100812.46;;;18.10;33.35
67803;BME280;54601;51.378;-1.342;2023-02-21T00:41:54;100808.85;;;18.26;33.40
67803;BME280;54601;51.378;-1.342;2023-02-21T00:44:20;100804.17;;;18.47;33.47
67803;BME280;54601;51.378;-1.342;2023-02-21T00:46:45;100806.55;;;18.01;33.39
67803;BME280;54601;51.378;-1.342;2023-02-21T00:49:10;100801.40;;;18.25;33.81
67803;BME280;54601;51.378;-1.342;2023-02-21T00:51:36;100801.62;;;18.15;33.75
67803;BME280;54601;51.378;-1.342;2023-02-21T00:54:01;100803.11;;;18.26;33.75
67803;BME280;54601;51.378;-1.342;2023-02-21T00:56:26;100800.39;;;17.84;33.80
67803;BME280;54601;51.378;-1.342;2023-02-21T00:58:52;100797.37;;;18.01;33.77
67803;BME280;54601;51.378;-1.342;2023-02-21T01:01:17;100790.81;;;17.89;33.76
67803;BME280;54601;51.378;-1.342;2023-02-21T01:03:42;100790.60;;;17.72;33.65
67803;BME280;54601;51.378;-1.342;2023-02-21T01:06:08;100790.46;;;17.82;34.09
67803;BME280;54601;51.378;-1.342;2023-02-21T01:08:33;100789.92;;;18.10;33.88
67803;BME280;54601;51.378;-1.342;2023-02-21T01:10:58;100790.08;;;18.17;33.92
67803;BME280;54601;51.378;-1.342;2023-02-21T01:13:24;100788.46;;;17.78;34.03
67803;BME280;54601;51.378;-1.342;2023-02-21T01:15:49;100784.96;;;17.74;34.10
67803;BME280;54601;51.378;-1.342;2023-02-21T01:18:14;100782.36;;;17.52;34.14
67803;BME280;54601;51.378;-1.342;2023-02-21T01:20:40;100783.83;;;17.76;34.05
67803;BME280;54601;51.378;-1.342;2023-02-21T01:23:05;100780.38;;;17.32;34.55
67803;BME280;54601;51.378;-1.342;2023-02-21T01:25:30;100773.78;;;17.92;34.10
67803;BME280;54601;51.378;-1.342;2023-02-21T01:27:56;100776.97;;;17.75;34.02
67803;BME280;54601;51.378;-1.342;2023-02-21T01:30:21;100769.08;;;17.34;34.14
67803;BME280;54601;51.378;-1.342;2023-02-21T01:32:46;100764.64;;;17.36;34.04
67803;BME280;54601;51.378;-1.342;2023-02-21T01:35:12;100760.23;;;17.41;33.91
67803;BME280;54601;51.378;-1.342;2023-02-21T01:37:39;100758.65;;;17.58;33.90
67803;BME280;54601;51.378;-1.342;2023-02-21T01:40:03;100748.03;;;17.34;34.01
67803;BME280;54601;51.378;-1.342;2023-02-21T01:42:28;100746.80;;;17.54;33.78
67803;BME280;54601;51.378;-1.342;2023-02-21T01:47:19;100738.08;;;17.54;34.06
67803;BME280;54601;51.378;-1.342;2023-02-21T01:49:44;100739.38;;;17.94;33.78
67803;BME280;54601;51.378;-1.342;2023-02-21T01:52:09;100741.08;;;17.17;34.15
67803;BME280;54601;51.378;-1.342;2023-02-21T01:54:38;100737.24;;;17.85;33.91
67803;BME280;54601;51.378;-1.342;2023-02-21T01:57:01;100733.99;;;17.80;33.94
67803;BME280;54601;51.378;-1.342;2023-02-21T01:59:26;100732.99;;;17.48;33.94
67803;BME280;54601;51.378;-1.342;2023-02-21T02:01:55;100732.34;;;17.79;33.85
67803;BME280;54601;51.378;-1.342;2023-02-21T02:04:16;100730.79;;;17.76;33.95
67803;BME280;54601;51.378;-1.342;2023-02-21T02:06:41;100731.70;;;17.69;34.00
67803;BME280;54601;51.378;-1.342;2023-02-21T02:09:13;100730.59;;;17.47;33.99
67803;BME280;54601;51.378;-1.342;2023-02-21T02:11:49;100722.26;;;17.44;34.01
67803;BME280;54601;51.378;-1.342;2023-02-21T02:14:09;100721.60;;;17.54;33.82
67803;BME280;54601;51.378;-1.342;2023-02-21T02:16:29;100718.50;;;17.54;33.83
67803;BME280;54601;51.378;-1.342;2023-02-21T02:18:59;100719.75;;;17.75;33.79
67803;BME280;54601;51.378;-1.342;2023-02-21T02:28:42;100713.39;;;17.31;33.70
67803;BME280;54601;51.378;-1.342;2023-02-21T02:33:32;100704.00;;;17.87;33.54
67803;BME280;54601;51.378;-1.342;2023-02-21T02:35:48;100702.20;;;17.35;33.54
67803;BME280;54601;51.378;-1.342;2023-02-21T02:38:15;100701.12;;;17.59;33.89
67803;BME280;54601;51.378;-1.342;2023-02-21T02:40:45;100702.41;;;17.70;33.76
67803;BME280;54601;51.378;-1.342;2023-02-21T02:43:08;100697.43;;;17.33;33.94
67803;BME280;54601;51.378;-1.342;2023-02-21T02:45:31;100691.69;;;17.66;33.80
67803;BME280;54601;51.378;-1.342;2023-02-21T02:47:56;100687.19;;;17.78;33.57
67803;BME280;54601;51.378;-1.342;2023-02-21T02:50:19;100688.41;;;17.75;33.57
67803;BME280;54601;51.378;-1.342;2023-02-21T02:52:49;100689.00;;;17.42;33.69
67803;BME280;54601;51.378;-1.342;2023-02-21T02:57:34;100686.65;;;17.63;33.77
67803;BME280;54601;51.378;-1.342;2023-02-21T02:59:59;100680.48;;;17.77;33.57
67803;BME280;54601;51.378;-1.342;2023-02-21T03:02:36;100682.49;;;17.62;33.76
67803;BME280;54601;51.378;-1.342;2023-02-21T03:05:05;100679.45;;;17.65;33.70
67803;BME280;54601;51.378;-1.342;2023-02-21T03:07:20;100679.83;;;17.21;33.90
67803;BME280;54601;51.378;-1.342;2023-02-21T03:09:47;100680.56;;;17.35;33.77
67803;BME280;54601;51.378;-1.342;2023-02-21T03:12:11;100676.01;;;17.38;33.75
67803;BME280;54601;51.378;-1.342;2023-02-21T03:14:36;100673.02;;;17.61;33.67
67803;BME280;54601;51.378;-1.342;2023-02-21T03:17:00;100665.82;;;17.67;33.56
67803;BME280;54601;51.378;-1.342;2023-02-21T03:19:25;100666.88;;;17.49;33.84
67803;BME280;54601;51.378;-1.342;2023-02-21T03:21:49;100665.52;;;17.49;33.84
67803;BME280;54601;51.378;-1.342;2023-02-21T03:24:14;100664.36;;;17.60;33.66
67803;BME280;54601;51.378;-1.342;2023-02-21T03:26:40;100669.37;;;17.59;33.62
67803;BME280;54601;51.378;-1.342;2023-02-21T03:29:03;100662.76;;;17.35;33.30
67803;BME280;54601;51.378;-1.342;2023-02-21T03:31:33;100662.49;;;17.77;33.38
67803;BME280;54601;51.378;-1.342;2023-02-21T03:33:54;100660.78;;;17.69;33.49
67803;BME280;54601;51.378;-1.342;2023-02-21T03:36:20;100655.14;;;17.77;33.34
67803;BME280;54601;51.378;-1.342;2023-02-21T03:38:44;100652.38;;;17.64;33.52
67803;BME280;54601;51.378;-1.342;2023-02-21T03:41:11;100647.33;;;17.87;33.21
67803;BME280;54601;51.378;-1.342;2023-02-21T03:43:35;100643.56;;;17.74;33.32
67803;BME280;54601;51.378;-1.342;2023-02-21T03:46:01;100646.07;;;17.72;33.41
67803;BME280;54601;51.378;-1.342;2023-02-21T03:48:26;100645.10;;;17.24;33.37
67803;BME280;54601;51.378;-1.342;2023-02-21T03:50:51;100644.35;;;17.48;33.38
67803;BME280;54601;51.378;-1.342;2023-02-21T03:53:17;100641.78;;;17.51;33.30
67803;BME280;54601;51.378;-1.342;2023-02-21T03:55:42;100642.61;;;17.62;33.49
67803;BME280;54601;51.378;-1.342;2023-02-21T03:58:08;100644.24;;;17.66;33.44
67803;BME280;54601;51.378;-1.342;2023-02-21T04:00:33;100641.07;;;17.55;33.54
67803;BME280;54601;51.378;-1.342;2023-02-21T04:02:58;100636.38;;;17.38;33.67
67803;BME280;54601;51.378;-1.342;2023-02-21T04:05:24;100635.94;;;17.61;33.73
67803;BME280;54601;51.378;-1.342;2023-02-21T04:07:49;100634.24;;;17.16;33.90
67803;BME280;54601;51.378;-1.342;2023-02-21T04:10:15;100623.84;;;17.40;33.68
67803;BME280;54601;51.378;-1.342;2023-02-21T04:12:40;100623.74;;;17.51;33.55
67803;BME280;54601;51.378;-1.342;2023-02-21T04:15:06;100621.11;;;17.58;33.46
67803;BME280;54601;51.378;-1.342;2023-02-21T04:17:31;100613.53;;;17.59;33.45
67803;BME280;54601;51.378;-1.342;2023-02-21T04:19:56;100614.08;;;17.52;33.55
67803;BME280;54601;51.378;-1.342;2023-02-21T04:22:22;100614.37;;;17.39;33.68
67803;BME280;54601;51.378;-1.342;2023-02-21T04:24:47;100613.09;;;17.09;33.79
67803;BME280;54601;51.378;-1.342;2023-02-21T04:27:13;100613.22;;;17.54;33.50
67803;BME280;54601;51.378;-1.342;2023-02-21T04:29:38;100608.72;;;17.46;33.50
67803;BME280;54601;51.378;-1.342;2023-02-21T04:32:03;100609.14;;;16.81;33.73
67803;BME280;54601;51.378;-1.342;2023-02-21T04:34:28;100608.51;;;17.68;33.27
67803;BME280;54601;51.378;-1.342;2023-02-21T04:36:54;100606.63;;;17.74;33.43
67803;BME280;54601;51.378;-1.342;2023-02-21T04:39:19;100602.90;;;17.29;33.76
67803;BME280;54601;51.378;-1.342;2023-02-21T04:41:45;100599.55;;;17.46;33.54
67803;BME280;54601;51.378;-1.342;2023-02-21T04:44:11;100598.23;;;17.54;33.42
67803;BME280;54601;51.378;-1.342;2023-02-21T04:46:36;100593.81;;;17.44;33.50
67803;BME280;54601;51.378;-1.342;2023-02-21T04:49:01;100593.32;;;17.47;33.49
67803;BME280;54601;51.378;-1.342;2023-02-21T04:51:26;100594.55;;;17.54;33.67
67803;BME280;54601;51.378;-1.342;2023-02-21T04:53:52;100596.51;;;17.23;33.78
67803;BME280;54601;51.378;-1.342;2023-02-21T04:56:19;100595.87;;;17.50;33.41
67803;BME280;54601;51.378;-1.342;2023-02-21T04:58:42;100593.35;;;17.44;33.47
67803;BME280;54601;51.378;-1.342;2023-02-21T05:01:09;100592.18;;;17.33;33.63
67803;BME280;54601;51.378;-1.342;2023-02-21T05:03:33;100591.75;;;17.24;33.72
67803;BME280;54601;51.378;-1.342;2023-02-21T05:05:58;100590.70;;;17.35;33.56
67803;BME280;54601;51.378;-1.342;2023-02-21T05:08:24;100594.34;;;17.28;33.67
67803;BME280;54601;51.378;-1.342;2023-02-21T05:10:50;100594.17;;;17.24;33.69
67803;BME280;54601;51.378;-1.342;2023-02-21T05:13:15;100597.01;;;17.23;33.71
67803;BME280;54601;51.378;-1.342;2023-02-21T05:15:40;100597.11;;;17.37;33.52
67803;BME280;54601;51.378;-1.342;2023-02-21T05:18:05;100596.17;;;17.42;33.45
67803;BME280;54601;51.378;-1.342;2023-02-21T05:20:31;100597.21;;;17.46;33.35
67803;BME280;54601;51.378;-1.342;2023-02-21T05:22:56;100593.02;;;17.44;33.37
67803;BME280;54601;51.378;-1.342;2023-02-21T05:25:22;100590.73;;;17.18;33.66
67803;BME280;54601;51.378;-1.342;2023-02-21T05:27:47;100583.74;;;17.76;33.06
67803;BME280;54601;51.378;-1.342;2023-02-21T05:30:14;100589.63;;;17.58;33.21
67803;BME280;54601;51.378;-1.342;2023-02-21T05:32:38;100587.14;;;17.64;33.15
67803;BME280;54601;51.378;-1.342;2023-02-21T05:35:04;100591.38;;;17.30;33.54
67803;BME280;54601;51.378;-1.342;2023-02-21T05:37:28;100591.80;;;17.30;33.52
67803;BME280;54601;51.378;-1.342;2023-02-21T05:39:54;100585.54;;;17.21;33.59
67803;BME280;54601;51.378;-1.342;2023-02-21T05:42:19;100583.26;;;17.16;33.70
67803;BME280;54601;51.378;-1.342;2023-02-21T05:44:45;100578.86;;;17.25;33.59
67803;BME280;54601;51.378;-1.342;2023-02-21T05:47:10;100576.44;;;17.22;33.55
67803;BME280;54601;51.378;-1.342;2023-02-21T05:49:35;100576.34;;;17.54;33.48
67803;BME280;54601;51.378;-1.342;2023-02-21T05:52:01;100574.92;;;17.40;33.35
67803;BME280;54601;51.378;-1.342;2023-02-21T05:54:26;100572.66;;;17.19;33.62
67803;BME280;54601;51.378;-1.342;2023-02-21T05:56:52;100567.54;;;17.16;33.63
67803;BME280;54601;51.378;-1.342;2023-02-21T05:59:19;100563.37;;;17.41;33.60
67803;BME280;54601;51.378;-1.342;2023-02-21T06:01:42;100558.75;;;17.03;33.80
67803;BME280;54601;51.378;-1.342;2023-02-21T06:04:08;100556.18;;;17.13;33.63
67803;BME280;54601;51.378;-1.342;2023-02-21T06:06:34;100551.88;;;17.06;33.73
67803;BME280;54601;51.378;-1.342;2023-02-21T06:08:59;100555.53;;;17.14;33.64
67803;BME280;54601;51.378;-1.342;2023-02-21T06:11:26;100552.97;;;17.27;33.48
67803;BME280;54601;51.378;-1.342;2023-02-21T06:13:50;100553.34;;;17.16;33.61
67803;BME280;54601;51.378;-1.342;2023-02-21T06:16:15;100551.77;;;17.18;33.57
67803;BME280;54601;51.378;-1.342;2023-02-21T06:18:40;100554.50;;;17.38;33.62
67803;BME280;54601;51.378;-1.342;2023-02-21T06:21:06;100558.39;;;17.29;33.72
67803;BME280;54601;51.378;-1.342;2023-02-21T06:23:31;100565.40;;;16.92;33.62
67803;BME280;54601;51.378;-1.342;2023-02-21T06:25:57;100565.12;;;17.14;33.62
67803;BME280;54601;51.378;-1.342;2023-02-21T06:28:27;100566.75;;;17.00;33.77
67803;BME280;54601;51.378;-1.342;2023-02-21T06:30:47;100560.40;;;17.06;33.74
67803;BME280;54601;51.378;-1.342;2023-02-21T06:33:13;100556.89;;;17.19;33.66
67803;BME280;54601;51.378;-1.342;2023-02-21T06:35:38;100556.85;;;17.30;33.72
67803;BME280;54601;51.378;-1.342;2023-02-21T06:38:03;100552.49;;;16.89;33.89
67803;BME280;54601;51.378;-1.342;2023-02-21T06:40:29;100550.96;;;17.51;33.35
67803;BME280;54601;51.378;-1.342;2023-02-21T06:42:54;100550.19;;;17.40;33.80
67803;BME280;54601;51.378;-1.342;2023-02-21T06:45:19;100547.27;;;17.88;33.98
67803;BME280;54601;51.378;-1.342;2023-02-21T06:47:45;100548.24;;;17.64;33.88
67803;BME280;54601;51.378;-1.342;2023-02-21T06:50:10;100549.31;;;17.69;34.00
67803;BME280;54601;51.378;-1.342;2023-02-21T06:52:36;100550.67;;;18.13;33.69
67803;BME280;54601;51.378;-1.342;2023-02-21T06:55:01;100550.55;;;18.09;33.77
67803;BME280;54601;51.378;-1.342;2023-02-21T06:57:26;100549.58;;;18.27;33.44
67803;BME280;54601;51.378;-1.342;2023-02-21T06:59:52;100551.47;;;18.25;33.62
67803;BME280;54601;51.378;-1.342;2023-02-21T07:02:19;100550.07;;;17.97;33.73
67803;BME280;54601;51.378;-1.342;2023-02-21T07:04:43;100548.85;;;18.27;33.73
67803;BME280;54601;51.378;-1.342;2023-02-21T07:07:08;100548.88;;;18.22;33.53
67803;BME280;54601;51.378;-1.342;2023-02-21T07:09:33;100554.41;;;18.43;33.64
67803;BME280;54601;51.378;-1.342;2023-02-21T07:11:59;100550.03;;;18.31;33.83
67803;BME280;54601;51.378;-1.342;2023-02-21T07:14:24;100550.18;;;18.32;33.90
67803;BME280;54601;51.378;-1.342;2023-02-21T07:16:49;100549.93;;;18.51;33.87
67803;BME280;54601;51.378;-1.342;2023-02-21T07:19:14;100546.92;;;18.52;33.85
67803;BME280;54601;51.378;-1.342;2023-02-21T07:21:40;100544.98;;;18.51;33.86
67803;BME280;54601;51.378;-1.342;2023-02-21T07:24:05;100540.65;;;18.64;33.82
67803;BME280;54601;51.378;-1.342;2023-02-21T07:26:30;100543.30;;;18.33;33.87
67803;BME280;54601;51.378;-1.342;2023-02-21T07:28:56;100545.36;;;18.66;33.87
67803;BME280;54601;51.378;-1.342;2023-02-21T07:31:21;100541.90;;;18.20;33.94
67803;BME280;54601;51.378;-1.342;2023-02-21T07:33:46;100541.78;;;18.68;33.94
67803;BME280;54601;51.378;-1.342;2023-02-21T07:36:11;100544.17;;;18.64;34.05
67803;BME280;54601;51.378;-1.342;2023-02-21T07:38:37;100548.64;;;18.65;33.97
67803;BME280;54601;51.378;-1.342;2023-02-21T07:41:03;100547.18;;;18.80;33.87
67803;BME280;54601;51.378;-1.342;2023-02-21T07:43:29;100548.54;;;18.65;34.01
67803;BME280;54601;51.378;-1.342;2023-02-21T07:45:53;100550.47;;;18.67;34.05
67803;BME280;54601;51.378;-1.342;2023-02-21T07:48:18;100542.73;;;18.76;33.97
67803;BME280;54601;51.378;-1.342;2023-02-21T07:50:44;100541.99;;;18.72;34.11
67803;BME280;54601;51.378;-1.342;2023-02-21T07:53:09;100545.88;;;18.55;34.01
67803;BME280;54601;51.378;-1.342;2023-02-21T07:55:34;100549.78;;;18.79;34.06
67803;BME280;54601;51.378;-1.342;2023-02-21T07:57:59;100549.08;;;18.57;34.06
67803;BME280;54601;51.378;-1.342;2023-02-21T08:00:24;100545.09;;;18.64;33.95
67803;BME280;54601;51.378;-1.342;2023-02-21T08:02:50;100544.11;;;18.90;33.88
67803;BME280;54601;51.378;-1.342;2023-02-21T08:05:16;100547.89;;;18.50;33.84
67803;BME280;54601;51.378;-1.342;2023-02-21T08:07:40;100551.80;;;18.46;33.80
67803;BME280;54601;51.378;-1.342;2023-02-21T08:10:06;100549.37;;;19.09;33.69
67803;BME280;54601;51.378;-1.342;2023-02-21T08:12:30;100549.05;;;18.94;33.74
67803;BME280;54601;51.378;-1.342;2023-02-21T08:14:56;100550.26;;;18.61;33.86
67803;BME280;54601;51.378;-1.342;2023-02-21T08:17:21;100556.74;;;19.11;33.81
67803;BME280;54601;51.378;-1.342;2023-02-21T08:19:46;100562.66;;;18.66;33.85
67803;BME280;54601;51.378;-1.342;2023-02-21T08:22:12;100561.90;;;19.11;33.82
67803;BME280;54601;51.378;-1.342;2023-02-21T08:24:37;100564.36;;;18.88;33.82
67803;BME280;54601;51.378;-1.342;2023-02-21T08:27:03;100568.89;;;18.87;33.82
67803;BME280;54601;51.378;-1.342;2023-02-21T08:29:27;100569.02;;;18.67;33.73
67803;BME280;54601;51.378;-1.342;2023-02-21T08:31:53;100572.24;;;18.73;33.65
67803;BME280;54601;51.378;-1.342;2023-02-21T08:34:18;100572.48;;;18.79;33.63
67803;BME280;54601;51.378;-1.342;2023-02-21T08:36:43;100567.98;;;19.14;33.58
67803;BME280;54601;51.378;-1.342;2023-02-21T08:39:09;100567.71;;;18.81;33.68
67803;BME280;54601;51.378;-1.342;2023-02-21T08:41:35;100569.46;;;19.18;33.56
67803;BME280;54601;51.378;-1.342;2023-02-21T08:43:59;100565.14;;;19.39;33.63
67803;BME280;54601;51.378;-1.342;2023-02-21T08:46:24;100569.36;;;18.85;33.62
67803;BME280;54601;51.378;-1.342;2023-02-21T08:48:49;100572.03;;;18.80;33.67
67803;BME280;54601;51.378;-1.342;2023-02-21T08:51:15;100575.90;;;18.81;33.67
67803;BME280;54601;51.378;-1.342;2023-02-21T08:53:40;100571.76;;;18.80;33.67
67803;BME280;54601;51.378;-1.342;2023-02-21T08:56:06;100566.37;;;18.75;33.72
67803;BME280;54601;51.378;-1.342;2023-02-21T08:58:31;100560.88;;;18.79;33.64
67803;BME280;54601;51.378;-1.342;2023-02-21T09:00:56;100561.68;;;18.76;33.64
67803;BME280;54601;51.378;-1.342;2023-02-21T09:03:21;100557.29;;;18.75;33.64
67803;BME280;54601;51.378;-1.342;2023-02-21T09:05:47;100555.50;;;18.70;33.67
67803;BME280;54601;51.378;-1.342;2023-02-21T09:08:12;100557.39;;;18.69;33.66
67803;BME280;54601;51.378;-1.342;2023-02-21T09:10:37;100555.10;;;18.76;33.53
67803;BME280;54601;51.378;-1.342;2023-02-21T09:13:03;100559.01;;;18.49;33.56
67803;BME280;54601;51.378;-1.342;2023-02-21T09:15:27;100565.07;;;18.67;33.61
67803;BME280;54601;51.378;-1.342;2023-02-21T09:17:53;100563.94;;;18.61;33.66
67803;BME280;54601;51.378;-1.342;2023-02-21T09:20:20;100566.35;;;18.60;33.66
67803;BME280;54601;51.378;-1.342;2023-02-21T09:22:43;100560.16;;;18.54;33.69
67803;BME280;54601;51.378;-1.342;2023-02-21T09:25:08;100560.07;;;18.75;33.72
67803;BME280;54601;51.378;-1.342;2023-02-21T09:27:34;100557.11;;;18.49;33.70
67803;BME280;54601;51.378;-1.342;2023-02-21T09:29:59;100553.92;;;18.72;33.71
67803;BME280;54601;51.378;-1.342;2023-02-21T09:32:24;100552.04;;;18.89;33.73
67803;BME280;54601;51.378;-1.342;2023-02-21T09:34:51;100546.69;;;18.66;33.71
67803;BME280;54601;51.378;-1.342;2023-02-21T09:37:15;100542.22;;;18.40;33.67
67803;BME280;54601;51.378;-1.342;2023-02-21T09:39:40;100538.34;;;18.34;33.68
67803;BME280;54601;51.378;-1.342;2023-02-21T09:42:06;100532.98;;;18.31;33.66
67803;BME280;54601;51.378;-1.342;2023-02-21T09:44:31;100535.55;;;18.84;33.59
67803;BME280;54601;51.378;-1.342;2023-02-21T09:47:00;100538.84;;;18.58;33.59
67803;BME280;54601;51.378;-1.342;2023-02-21T09:49:24;100540.38;;;18.29;33.60
67803;BME280;54601;51.378;-1.342;2023-02-21T09:51:48;100543.70;;;18.75;33.59
67803;BME280;54601;51.378;-1.342;2023-02-21T09:54:17;100544.98;;;18.56;33.48
67803;BME280;54601;51.378;-1.342;2023-02-21T09:56:39;100542.47;;;18.29;33.43
67803;BME280;54601;51.378;-1.342;2023-02-21T09:59:04;100542.14;;;18.49;33.53
67803;BME280;54601;51.378;-1.342;2023-02-21T10:01:36;100537.11;;;18.54;33.41
67803;BME280;54601;51.378;-1.342;2023-02-21T10:04:01;100535.68;;;18.71;33.44
67803;BME280;54601;51.378;-1.342;2023-02-21T10:06:26;100537.87;;;18.22;33.39
67803;BME280;54601;51.378;-1.342;2023-02-21T10:08:51;100536.34;;;18.67;33.41
67803;BME280;54601;51.378;-1.342;2023-02-21T10:11:22;100537.53;;;18.20;33.31
67803;BME280;54601;51.378;-1.342;2023-02-21T10:13:40;100539.20;;;18.50;33.22
67803;BME280;54601;51.378;-1.342;2023-02-21T10:16:04;100535.68;;;18.15;33.30
67803;BME280;54601;51.378;-1.342;2023-02-21T10:18:37;100533.28;;;18.07;33.33
67803;BME280;54601;51.378;-1.342;2023-02-21T10:20:52;100526.99;;;18.59;33.29
67803;BME280;54601;51.378;-1.342;2023-02-21T10:23:22;100522.06;;;18.37;33.25
67803;BME280;54601;51.378;-1.342;2023-02-21T10:25:43;100521.79;;;18.03;33.30
67803;BME280;54601;51.378;-1.342;2023-02-21T10:28:07;100519.69;;;18.54;33.19
67803;BME280;54601;51.378;-1.342;2023-02-21T10:30:36;100520.84;;;18.50;33.26
67803;BME280;54601;51.378;-1.342;2023-02-21T10:32:58;100518.20;;;18.46;33.33
67803;BME280;54601;51.378;-1.342;2023-02-21T10:35:24;100513.84;;;17.85;33.43
67803;BME280;54601;51.378;-1.342;2023-02-21T10:37:51;100510.30;;;17.81;33.46
67803;BME280;54601;51.378;-1.342;2023-02-21T10:40:26;100509.73;;;18.42;33.24
67803;BME280;54601;51.378;-1.342;2023-02-21T10:42:43;100509.00;;;17.97;33.20
67803;BME280;54601;51.378;-1.342;2023-02-21T10:45:07;100501.35;;;18.37;33.27
67803;BME280;54601;51.378;-1.342;2023-02-21T10:47:39;100500.94;;;18.15;33.24
67803;BME280;54601;51.378;-1.342;2023-02-21T10:50:00;100496.06;;;18.08;33.31
67803;BME280;54601;51.378;-1.342;2023-02-21T10:52:21;100496.29;;;18.02;33.37
67803;BME280;54601;51.378;-1.342;2023-02-21T10:57:15;100487.33;;;18.27;33.31
67803;BME280;54601;51.378;-1.342;2023-02-21T10:59:40;100482.22;;;17.99;33.40
67803;BME280;54601;51.378;-1.342;2023-02-21T11:04:31;100486.83;;;18.27;33.29
67803;BME280;54601;51.378;-1.342;2023-02-21T11:06:55;100485.51;;;18.06;33.27
67803;BME280;54601;51.378;-1.342;2023-02-21T11:09:29;100485.40;;;17.71;33.22
67803;BME280;54601;51.378;-1.342;2023-02-21T11:11:43;100491.09;;;18.25;33.28
67803;BME280;54601;51.378;-1.342;2023-02-21T11:14:19;100486.08;;;18.29;33.14
67803;BME280;54601;51.378;-1.342;2023-02-21T11:16:34;100488.20;;;18.25;33.13
67803;BME280;54601;51.378;-1.342;2023-02-21T11:19:04;100486.59;;;17.64;33.28
67803;BME280;54601;51.378;-1.342;2023-02-21T11:21:25;100484.68;;;18.19;33.21
67803;BME280;54601;51.378;-1.342;2023-02-21T11:23:55;100484.58;;;18.19;33.31
67803;BME280;54601;51.378;-1.342;2023-02-21T11:26:16;100480.99;;;18.25;33.24
67803;BME280;54601;51.378;-1.342;2023-02-21T11:28:43;100479.53;;;18.08;33.18
67803;BME280;54601;51.378;-1.342;2023-02-21T11:31:14;100479.30;;;17.92;33.26
67803;BME280;54601;51.378;-1.342;2023-02-21T11:33:36;100473.46;;;17.93;33.35
67803;BME280;54601;51.378;-1.342;2023-02-21T11:36:07;100471.14;;;17.94;33.14
67803;BME280;54601;51.378;-1.342;2023-02-21T11:38:29;100469.83;;;18.19;33.22
67803;BME280;54601;51.378;-1.342;2023-02-21T11:40:50;100468.06;;;18.30;33.14
67803;BME280;54601;51.378;-1.342;2023-02-21T11:43:19;100460.38;;;18.10;33.34
67803;BME280;54601;51.378;-1.342;2023-02-21T11:45:43;100458.22;;;18.19;33.20
67803;BME280;54601;51.378;-1.342;2023-02-21T11:48:10;100457.51;;;17.95;33.12
67803;BME280;54601;51.378;-1.342;2023-02-21T11:50:32;100456.29;;;18.26;33.09
67803;BME280;54601;51.378;-1.342;2023-02-21T11:53:00;100457.43;;;18.17;33.14
67803;BME280;54601;51.378;-1.342;2023-02-21T11:55:21;100456.03;;;18.04;33.24
67803;BME280;54601;51.378;-1.342;2023-02-21T11:57:53;100452.54;;;17.84;33.24
67803;BME280;54601;51.378;-1.342;2023-02-21T12:00:19;100450.38;;;18.05;33.27
67803;BME280;54601;51.378;-1.342;2023-02-21T12:02:51;100445.68;;;18.01;33.25
67803;BME280;54601;51.378;-1.342;2023-02-21T12:05:12;100444.16;;;18.20;33.02
67803;BME280;54601;51.378;-1.342;2023-02-21T12:07:32;100445.42;;;18.15;33.14
67803;BME280;54601;51.378;-1.342;2023-02-21T12:09:56;100440.96;;;18.19;33.06
67803;BME280;54601;51.378;-1.342;2023-02-21T12:12:26;100438.72;;;18.09;33.23
67803;BME280;54601;51.378;-1.342;2023-02-21T12:14:54;100436.89;;;18.08;33.20
67803;BME280;54601;51.378;-1.342;2023-02-21T12:17:19;100429.65;;;18.14;33.19
67803;BME280;54601;51.378;-1.342;2023-02-21T12:19:49;100431.78;;;18.12;33.10
67803;BME280;54601;51.378;-1.342;2023-02-21T12:22:02;100430.41;;;18.10;33.18
67803;BME280;54601;51.378;-1.342;2023-02-21T12:26:53;100424.85;;;17.95;33.11
67803;BME280;54601;51.378;-1.342;2023-02-21T12:29:27;100423.31;;;17.86;33.29
67803;BME280;54601;51.378;-1.342;2023-02-21T12:31:51;100425.04;;;18.06;33.15
67803;BME280;54601;51.378;-1.342;2023-02-21T12:34:16;100416.98;;;17.98;33.26
67803;BME280;54601;51.378;-1.342;2023-02-21T12:39:03;100416.59;;;18.16;33.00
67803;BME280;54601;51.378;-1.342;2023-02-21T12:41:32;100412.43;;;17.95;33.26
67803;BME280;54601;51.378;-1.342;2023-02-21T12:43:53;100411.03;;;18.08;33.17
67803;BME280;54601;51.378;-1.342;2023-02-21T12:46:18;100409.98;;;17.94;33.26
67803;BME280;54601;51.378;-1.342;2023-02-21T12:48:42;100401.61;;;18.07;33.11
67803;BME280;54601;51.378;-1.342;2023-02-21T12:51:06;100395.74;;;17.75;33.28
67803;BME280;54601;51.378;-1.342;2023-02-21T12:53:32;100393.06;;;17.77;33.22